createdAt,value
2018-09-08T00:00:36.143Z,11.40
2018-09-08T00:02:19.703Z,7.00
2018-09-08T00:03:59.742Z,9.00
2018-09-08T00:05:38.797Z,10.00
2018-09-08T00:07:21.098Z,7.40
2018-09-08T00:08:57.002Z,9.00
2018-09-08T00:10:33.103Z,10.60
2018-09-08T00:12:14.676Z,8.60
2018-09-08T00:13:52.738Z,10.40
2018-09-08T00:15:33.600Z,7.40
2018-09-08T00:17:13.571Z,9.60
2018-09-08T00:18:55.196Z,7.40
2018-09-08T00:20:35.539Z,10.00
2018-09-08T00:22:15.777Z,8.20
2018-09-08T00:23:56.684Z,9.00
2018-09-08T00:25:37.456Z,7.80
2018-09-08T00:27:15.513Z,7.00
2018-09-08T00:29:02.544Z,9.00
2018-09-08T00:30:38.091Z,7.40
2018-09-08T00:32:16.010Z,8.80
2018-09-08T00:33:52.123Z,11.20
2018-09-08T00:35:28.693Z,8.60
2018-09-08T00:37:03.896Z,9.80
2018-09-08T00:38:39.277Z,9.20
2018-09-08T00:40:17.944Z,10.80
2018-09-08T00:41:55.540Z,9.00
2018-09-08T00:43:31.786Z,6.60
2018-09-08T00:45:07.633Z,10.00
2018-09-08T00:47:46.118Z,11.20
2018-09-08T00:49:22.086Z,9.80
2018-09-08T00:50:57.827Z,12.00
2018-09-08T00:52:34.239Z,7.80
2018-09-08T00:54:13.123Z,6.80
2018-09-08T00:55:48.905Z,12.00
2018-09-08T00:57:24.976Z,11.20
2018-09-08T00:59:06.117Z,6.80
2018-09-08T01:00:41.698Z,9.00
2018-09-08T01:02:18.708Z,9.00
2018-09-08T01:03:55.068Z,9.40
2018-09-08T01:05:33.598Z,11.60
2018-09-08T01:07:14.361Z,8.80
2018-09-08T01:08:52.259Z,11.40
2018-09-08T01:10:30.460Z,9.00
2018-09-08T01:12:12.140Z,10.00
2018-09-08T01:13:50.194Z,11.60
2018-09-08T01:15:27.015Z,10.00
2018-09-08T01:17:02.350Z,11.60
2018-09-08T01:18:39.661Z,7.00
2018-09-08T01:20:21.960Z,5.20
2018-09-08T01:21:57.193Z,7.80
2018-09-08T01:23:37.616Z,9.40
2018-09-08T01:25:14.474Z,9.00
2018-09-08T01:26:50.133Z,12.40
2018-09-08T01:28:30.018Z,9.40
2018-09-08T01:30:08.372Z,11.60
2018-09-08T01:31:43.758Z,9.60
2018-09-08T01:33:21.168Z,10.40
2018-09-08T01:34:57.912Z,12.80
2018-09-08T01:36:34.647Z,10.00
2018-09-08T01:38:11.368Z,10.00
2018-09-08T01:39:47.495Z,6.00
2018-09-08T01:41:22.488Z,9.20
2018-09-08T01:42:58.128Z,3.20
2018-09-08T01:44:33.772Z,7.40
2018-09-08T01:46:09.344Z,6.00
2018-09-08T01:47:45.066Z,7.80
2018-09-08T01:49:20.430Z,12.00
2018-09-08T01:50:56.166Z,10.80
2018-09-08T01:52:31.729Z,10.40
2018-09-08T01:54:06.942Z,9.60
2018-09-08T01:55:42.031Z,11.20
2018-09-08T01:57:17.283Z,9.40
2018-09-08T01:58:52.452Z,13.00
2018-09-08T02:00:28.959Z,9.20
2018-09-08T02:02:03.866Z,9.20
2018-09-08T02:03:39.866Z,10.00
2018-09-08T02:05:19.521Z,10.80
2018-09-08T02:06:56.794Z,9.40
2018-09-08T02:08:31.892Z,12.20
2018-09-08T02:10:07.402Z,11.60
2018-09-08T02:11:43.771Z,7.60
2018-09-08T02:13:19.352Z,9.80
2018-09-08T02:14:55.345Z,13.00
2018-09-08T02:16:31.140Z,10.80
2018-09-08T02:18:07.399Z,9.80
2018-09-08T02:19:43.206Z,9.40
2018-09-08T02:21:19.291Z,12.20
2018-09-08T02:22:54.508Z,12.00
2018-09-08T02:24:30.586Z,12.40
2018-09-08T02:26:06.436Z,8.20
2018-09-08T02:27:42.967Z,3.00
2018-09-08T02:29:21.561Z,10.80
2018-09-08T02:30:58.605Z,12.20
2018-09-08T02:32:35.010Z,9.00
2018-09-08T02:34:10.905Z,12.00
2018-09-08T02:35:46.482Z,10.80
2018-09-08T02:37:21.852Z,9.60
2018-09-08T02:38:56.742Z,9.40
2018-09-08T02:40:32.191Z,11.60
2018-09-08T02:42:10.859Z,9.80
2018-09-08T02:43:45.970Z,8.20
2018-09-08T02:45:21.032Z,9.00
2018-09-08T02:46:56.057Z,9.20
2018-09-08T02:48:32.140Z,6.60
2018-09-08T02:50:17.705Z,10.20
2018-09-08T02:51:52.036Z,9.40
2018-09-08T02:53:25.438Z,9.00
2018-09-08T02:55:00.672Z,9.40
2018-09-08T02:56:33.892Z,7.20
2018-09-08T02:58:08.408Z,9.20
2018-09-08T02:59:41.858Z,11.60
2018-09-08T03:01:15.895Z,9.20
2018-09-08T03:02:49.508Z,9.20
2018-09-08T03:04:22.843Z,8.60
2018-09-08T03:05:56.371Z,9.20
2018-09-08T03:07:29.729Z,10.40
2018-09-08T03:09:03.165Z,10.00
2018-09-08T03:10:37.183Z,12.20
2018-09-08T03:12:11.420Z,9.80
2018-09-08T03:13:46.725Z,10.80
2018-09-08T03:15:20.492Z,6.80
2018-09-08T03:16:54.080Z,11.20
2018-09-08T03:18:28.195Z,11.60
2018-09-08T03:20:02.220Z,4.80
2018-09-08T03:21:36.451Z,12.00
2018-09-08T03:23:09.799Z,7.40
2018-09-08T03:24:43.530Z,7.00
2018-09-08T03:26:18.381Z,9.00
2018-09-08T03:27:51.641Z,7.00
2018-09-08T03:29:24.826Z,9.00
2018-09-08T03:30:58.584Z,9.00
2018-09-08T03:32:32.358Z,7.00
2018-09-08T03:34:06.612Z,7.00
2018-09-08T03:35:39.961Z,10.40
2018-09-08T03:37:13.842Z,10.20
2018-09-08T03:38:47.204Z,9.60
2018-09-08T03:40:20.727Z,9.00
2018-09-08T03:41:54.375Z,9.00
2018-09-08T03:43:28.101Z,7.40
2018-09-08T03:45:01.478Z,9.00
2018-09-08T03:46:36.443Z,9.40
2018-09-08T03:48:09.739Z,6.00
2018-09-08T03:49:43.548Z,7.80
2018-09-08T03:51:17.161Z,10.00
2018-09-08T03:52:50.830Z,9.00
2018-09-08T03:55:38.504Z,9.00
2018-09-08T03:57:12.296Z,9.20
2018-09-08T03:58:45.504Z,7.80
2018-09-08T04:00:18.961Z,7.40
2018-09-08T04:01:52.732Z,8.20
2018-09-08T04:03:28.228Z,10.00
2018-09-08T04:05:03.470Z,8.60
2018-09-08T04:06:38.700Z,9.20
2018-09-08T04:08:13.963Z,8.60
2018-09-08T04:09:49.863Z,6.00
2018-09-08T04:11:25.417Z,6.60
2018-09-08T04:13:00.263Z,9.40
2018-09-08T04:14:36.517Z,8.60
2018-09-08T04:16:11.420Z,7.00
2018-09-08T04:17:46.345Z,4.00
2018-09-08T04:19:21.446Z,10.40
2018-09-08T04:20:56.709Z,5.20
2018-09-08T04:22:36.191Z,7.20
2018-09-08T04:24:11.199Z,4.00
2018-09-08T04:25:46.159Z,8.20
2018-09-08T04:27:20.952Z,7.00
2018-09-08T04:28:56.310Z,9.20
2018-09-08T04:30:31.422Z,10.00
2018-09-08T04:32:06.418Z,9.40
2018-09-08T04:33:43.244Z,7.80
2018-09-08T04:35:20.048Z,3.00
2018-09-08T04:36:54.860Z,1.80
2018-09-08T04:38:29.655Z,9.20
2018-09-08T04:40:04.599Z,6.80
2018-09-08T04:41:39.783Z,8.60
2018-09-08T04:43:14.775Z,9.20
2018-09-08T04:44:50.211Z,6.60
2018-09-08T04:46:25.642Z,7.40
2018-09-08T04:48:00.562Z,7.80
2018-09-08T04:49:35.801Z,8.20
2018-09-08T04:51:19.811Z,6.40
2018-09-08T04:53:03.539Z,7.40
2018-09-08T04:54:38.427Z,9.40
2018-09-08T04:56:14.404Z,6.00
2018-09-08T04:57:49.441Z,7.40
2018-09-08T04:59:24.338Z,7.00
2018-09-08T05:00:59.431Z,3.00
2018-09-08T05:02:34.414Z,5.20
2018-09-08T05:04:11.422Z,6.20
2018-09-08T05:05:47.448Z,6.40
2018-09-08T05:07:22.489Z,5.60
2018-09-08T05:08:59.550Z,6.80
2018-09-08T05:10:35.111Z,8.60
2018-09-08T05:12:10.688Z,4.40
2018-09-08T05:13:45.596Z,7.00
2018-09-08T05:15:20.648Z,7.40
2018-09-08T05:16:55.497Z,4.80
2018-09-08T05:18:30.351Z,6.20
2018-09-08T05:20:06.104Z,6.00
2018-09-08T05:21:41.106Z,7.00
2018-09-08T05:23:20.168Z,4.00
2018-09-08T05:24:55.582Z,5.20
2018-09-08T05:26:30.776Z,6.20
2018-09-08T05:28:05.983Z,4.00
2018-09-08T05:29:42.409Z,3.40
2018-09-08T05:31:18.523Z,6.00
2018-09-08T05:32:53.434Z,5.60
2018-09-08T05:34:29.921Z,5.60
2018-09-08T05:36:05.626Z,4.00
2018-09-08T05:37:40.820Z,5.60
2018-09-08T05:39:16.673Z,5.60
2018-09-08T05:40:53.546Z,5.20
2018-09-08T05:42:30.096Z,4.00
2018-09-08T05:44:05.040Z,4.40
2018-09-08T05:45:40.425Z,5.20
2018-09-08T05:47:15.617Z,4.80
2018-09-08T05:48:58.422Z,6.00
2018-09-08T05:50:33.300Z,5.60
2018-09-08T05:52:08.137Z,4.40
2018-09-08T05:53:43.048Z,4.00
2018-09-08T05:55:18.106Z,6.00
2018-09-08T05:56:54.564Z,5.60
2018-09-08T05:58:29.708Z,4.00
2018-09-08T06:00:08.061Z,6.00
2018-09-08T06:01:44.050Z,4.00
2018-09-08T06:03:19.464Z,3.20
2018-09-08T06:04:54.819Z,5.20
2018-09-08T06:06:29.641Z,5.20
2018-09-08T06:08:04.723Z,4.40
2018-09-08T06:09:39.606Z,5.60
2018-09-08T06:11:16.324Z,6.80
2018-09-08T06:12:54.772Z,6.00
2018-09-08T06:14:32.056Z,6.00
2018-09-08T06:16:07.029Z,6.40
2018-09-08T06:17:46.392Z,7.00
2018-09-08T06:19:21.455Z,6.00
2018-09-08T06:20:57.222Z,3.20
2018-09-08T06:22:32.261Z,3.00
2018-09-08T06:24:07.304Z,6.40
2018-09-08T06:25:42.302Z,6.60
2018-09-08T06:27:17.928Z,4.80
2018-09-08T06:28:53.514Z,4.80
2018-09-08T06:30:28.916Z,4.00
2018-09-08T06:32:03.988Z,6.00
2018-09-08T06:33:40.905Z,5.60
2018-09-08T06:35:16.913Z,4.80
2018-09-08T06:36:53.558Z,6.20
2018-09-08T06:38:28.555Z,6.80
2018-09-08T06:40:03.920Z,4.00
2018-09-08T06:41:39.028Z,6.00
2018-09-08T06:43:14.623Z,4.40
2018-09-08T06:44:50.808Z,4.40
2018-09-08T06:46:26.763Z,5.20
2018-09-08T06:48:02.771Z,4.00
2018-09-08T06:49:38.555Z,6.00
2018-09-08T06:51:13.752Z,5.60
2018-09-08T06:52:49.088Z,4.80
2018-09-08T06:54:24.449Z,6.20
2018-09-08T06:55:59.483Z,5.20
2018-09-08T06:57:34.932Z,4.80
2018-09-08T06:59:09.868Z,6.00
2018-09-08T07:00:45.683Z,6.20
2018-09-08T07:02:20.788Z,4.00
2018-09-08T07:03:56.858Z,7.00
2018-09-08T07:05:33.144Z,2.60
2018-09-08T07:07:13.970Z,6.00
2018-09-08T07:08:49.977Z,6.60
2018-09-08T07:10:26.915Z,4.00
2018-09-08T07:12:01.764Z,7.00
2018-09-08T07:13:37.595Z,6.00
2018-09-08T07:15:14.898Z,6.00
2018-09-08T07:16:50.079Z,4.00
2018-09-08T07:18:25.721Z,6.00
2018-09-08T07:20:00.505Z,6.00
2018-09-08T07:21:36.878Z,6.40
2018-09-08T07:23:13.275Z,3.40
2018-09-08T07:24:50.563Z,6.80
2018-09-08T07:26:25.674Z,6.00
2018-09-08T07:28:00.873Z,5.60
2018-09-08T07:29:37.556Z,5.20
2018-09-08T07:31:13.286Z,6.00
2018-09-08T07:32:48.376Z,5.20
2018-09-08T07:34:23.604Z,4.80
2018-09-08T07:35:58.951Z,6.20
2018-09-08T07:37:34.375Z,6.20
2018-09-08T07:39:11.314Z,6.00
2018-09-08T07:40:46.253Z,3.60
2018-09-08T07:42:21.254Z,5.20
2018-09-08T07:43:58.204Z,5.20
2018-09-08T07:45:33.704Z,2.20
2018-09-08T07:47:08.606Z,4.40
2018-09-08T07:48:43.438Z,4.60
2018-09-08T07:50:18.822Z,5.00
2018-09-08T07:51:56.009Z,6.60
2018-09-08T07:53:31.047Z,7.00
2018-09-08T07:55:06.080Z,4.00
2018-09-08T07:56:43.060Z,7.00
2018-09-08T07:58:18.375Z,6.20
2018-09-08T07:59:53.556Z,5.00
2018-09-08T08:01:28.376Z,4.60
2018-09-08T08:03:04.005Z,5.80
2018-09-08T08:04:39.602Z,4.80
2018-09-08T08:06:15.335Z,4.00
2018-09-08T08:07:52.461Z,4.60
2018-09-08T08:09:29.643Z,4.40
2018-09-08T08:11:06.691Z,6.20
2018-09-08T08:12:42.036Z,3.20
2018-09-08T08:14:18.293Z,0.80
2018-09-08T08:15:53.923Z,5.00
2018-09-08T08:17:32.292Z,7.20
2018-09-08T08:19:07.924Z,5.80
2018-09-08T08:20:44.503Z,5.00
2018-09-08T08:22:23.061Z,4.80
2018-09-08T08:23:59.185Z,5.00
2018-09-08T08:25:36.631Z,4.80
2018-09-08T08:27:12.321Z,4.00
2018-09-08T08:28:49.522Z,4.60
2018-09-08T08:30:26.240Z,4.80
2018-09-08T08:32:02.408Z,4.00
2018-09-08T08:33:40.832Z,4.00
2018-09-08T08:35:18.305Z,4.20
2018-09-08T08:36:53.774Z,4.40
2018-09-08T08:38:29.291Z,5.80
2018-09-08T08:40:04.653Z,3.60
2018-09-08T08:41:40.623Z,4.20
2018-09-08T08:43:16.287Z,4.20
2018-09-08T08:44:51.848Z,4.00
2018-09-08T08:46:27.606Z,2.80
2018-09-08T08:48:05.259Z,4.00
2018-09-08T08:49:40.808Z,4.00
2018-09-08T08:51:26.768Z,4.00
2018-09-08T08:53:12.434Z,6.20
2018-09-08T08:54:52.753Z,4.20
2018-09-08T08:56:28.429Z,4.00
2018-09-08T08:58:03.969Z,4.00
2018-09-08T08:59:40.802Z,5.40
2018-09-08T09:01:16.511Z,4.80
2018-09-08T09:02:52.981Z,5.40
2018-09-08T09:04:28.071Z,4.00
2018-09-08T09:06:03.663Z,6.80
2018-09-08T09:07:40.544Z,5.20
2018-09-08T09:09:17.341Z,5.00
2018-09-08T09:10:52.450Z,2.00
2018-09-08T09:12:27.900Z,2.00
2018-09-08T09:14:03.016Z,5.00
2018-09-08T09:15:38.311Z,3.80
2018-09-08T09:17:15.052Z,4.60
2018-09-08T09:19:02.140Z,4.60
2018-09-08T09:20:48.582Z,4.20
2018-09-08T09:22:38.420Z,2.60
2018-09-08T09:24:58.078Z,3.40
2018-09-08T09:26:34.302Z,2.00
2018-09-08T09:28:10.195Z,4.40
2018-09-08T09:29:46.366Z,3.20
2018-09-08T09:31:22.202Z,5.00
2018-09-08T09:32:59.267Z,2.40
2018-09-08T09:34:34.803Z,3.80
2018-09-08T09:36:11.561Z,2.00
2018-09-08T09:37:47.208Z,3.20
2018-09-08T09:39:22.712Z,4.00
2018-09-08T09:40:57.709Z,3.40
2018-09-08T09:42:32.980Z,2.00
2018-09-08T09:44:08.640Z,3.20
2018-09-08T09:45:45.406Z,2.80
2018-09-08T09:47:20.798Z,3.00
2018-09-08T09:49:01.093Z,2.00
2018-09-08T09:50:36.158Z,4.00
2018-09-08T09:52:11.524Z,3.00
2018-09-08T09:53:47.231Z,3.00
2018-09-08T09:55:24.152Z,5.00
2018-09-08T09:57:00.235Z,1.80
2018-09-08T09:58:35.755Z,2.00
2018-09-08T10:00:15.781Z,2.80
2018-09-08T10:01:57.889Z,1.60
2018-09-08T10:03:35.728Z,2.60
2018-09-08T10:05:18.908Z,2.40
2018-09-08T10:06:54.781Z,2.00
2018-09-08T10:08:31.035Z,2.00
2018-09-08T10:10:06.218Z,2.00
2018-09-08T10:11:41.864Z,1.40
2018-09-08T10:13:17.105Z,1.20
2018-09-08T10:14:53.484Z,2.00
2018-09-08T10:16:29.635Z,1.80
2018-09-08T10:18:08.458Z,1.80
2018-09-08T10:19:45.235Z,2.60
2018-09-08T10:21:20.654Z,1.00
2018-09-08T10:22:55.826Z,2.00
2018-09-08T10:24:31.920Z,2.00
2018-09-08T10:26:07.141Z,2.00
2018-09-08T10:27:42.348Z,2.00
2018-09-08T10:29:17.263Z,2.00
2018-09-08T10:30:54.496Z,1.00
2018-09-08T10:32:30.880Z,2.00
2018-09-08T10:34:06.160Z,1.00
2018-09-08T10:35:43.059Z,0.00
2018-09-08T10:37:18.118Z,2.00
2018-09-08T10:38:53.947Z,2.80
2018-09-08T10:40:30.826Z,2.00
2018-09-08T10:42:06.780Z,2.00
2018-09-08T10:43:43.791Z,2.00
2018-09-08T10:45:22.532Z,3.00
2018-09-08T10:46:58.813Z,2.00
2018-09-08T10:48:34.586Z,2.00
2018-09-08T10:50:12.161Z,2.00
2018-09-08T10:52:00.456Z,1.40
2018-09-08T10:53:39.199Z,2.00
2018-09-08T10:55:14.500Z,1.00
2018-09-08T10:56:52.729Z,2.00
2018-09-08T10:58:29.202Z,2.00
2018-09-08T11:00:08.204Z,2.00
2018-09-08T11:01:45.707Z,2.00
2018-09-08T11:03:23.609Z,0.60
2018-09-08T11:04:58.922Z,2.00
2018-09-08T11:06:37.937Z,0.80
2018-09-08T11:08:13.089Z,2.00
2018-09-08T11:09:49.381Z,2.00
2018-09-08T11:11:26.517Z,2.00
2018-09-08T11:13:03.225Z,2.00
2018-09-08T11:14:39.332Z,3.00
2018-09-08T11:16:18.014Z,1.00
2018-09-08T11:17:58.814Z,2.00
2018-09-08T11:19:37.226Z,2.60
2018-09-08T11:21:14.290Z,2.00
2018-09-08T11:22:53.048Z,2.20
2018-09-08T11:24:31.537Z,2.00
2018-09-08T11:26:06.943Z,2.00
2018-09-08T11:27:45.938Z,1.00
2018-09-08T11:29:23.151Z,1.00
2018-09-08T11:30:58.580Z,2.20
2018-09-08T11:32:35.957Z,2.40
2018-09-08T11:34:11.785Z,1.60
2018-09-08T11:35:47.639Z,2.20
2018-09-08T11:37:22.835Z,2.00
2018-09-08T11:38:58.439Z,3.00
2018-09-08T11:40:34.407Z,3.00
2018-09-08T11:42:10.827Z,2.00
2018-09-08T11:43:46.702Z,3.00
2018-09-08T11:45:23.317Z,2.00
2018-09-08T11:47:00.150Z,2.60
2018-09-08T11:48:37.032Z,2.80
2018-09-08T11:50:14.931Z,2.00
2018-09-08T11:51:51.590Z,3.00
2018-09-08T11:53:27.705Z,3.00
2018-09-08T11:55:03.650Z,2.00
2018-09-08T11:56:39.489Z,3.00
2018-09-08T11:58:16.240Z,2.00
2018-09-08T11:59:51.734Z,2.00
2018-09-08T12:01:26.983Z,2.80
2018-09-08T12:03:02.278Z,3.60
2018-09-08T12:04:37.908Z,1.00
2018-09-08T12:06:13.864Z,3.00
2018-09-08T12:07:50.663Z,2.20
2018-09-08T12:09:28.621Z,2.60
2018-09-08T12:11:05.744Z,2.00
2018-09-08T12:12:56.012Z,1.60
2018-09-08T12:14:31.451Z,2.20
2018-09-08T12:16:08.713Z,3.00
2018-09-08T12:17:45.408Z,3.00
2018-09-08T12:19:20.693Z,3.00
2018-09-08T12:20:56.229Z,2.40
2018-09-08T12:22:31.773Z,3.00
2018-09-08T12:24:07.148Z,2.20
2018-09-08T12:25:43.702Z,1.60
2018-09-08T12:27:19.906Z,3.00
2018-09-08T12:29:00.289Z,3.20
2018-09-08T12:30:35.972Z,3.20
2018-09-08T12:32:13.665Z,3.00
2018-09-08T12:33:50.744Z,3.00
2018-09-08T12:35:25.753Z,2.40
2018-09-08T12:37:01.221Z,4.00
2018-09-08T12:38:36.726Z,2.20
2018-09-08T12:43:36.101Z,3.00
2018-09-08T12:45:13.081Z,5.00
2018-09-08T12:46:52.239Z,3.40
2018-09-08T12:48:28.405Z,3.40
2018-09-08T12:50:06.386Z,2.80
2018-09-08T12:51:47.804Z,4.00
2018-09-08T12:53:23.887Z,3.00
2018-09-08T12:55:00.087Z,2.60
2018-09-08T12:56:34.976Z,2.00
2018-09-08T12:58:14.066Z,2.80
2018-09-08T12:59:50.120Z,3.00
2018-09-08T13:01:26.469Z,3.00
2018-09-08T13:03:05.605Z,2.00
2018-09-08T13:04:43.936Z,2.00
2018-09-08T13:06:18.887Z,3.00
2018-09-08T13:07:54.997Z,3.00
2018-09-08T13:09:29.887Z,1.00
2018-09-08T13:11:05.646Z,3.00
2018-09-08T13:12:40.597Z,3.00
2018-09-08T13:14:17.427Z,2.80
2018-09-08T13:15:54.634Z,2.60
2018-09-08T13:17:29.679Z,3.00
2018-09-08T13:19:05.906Z,2.00
2018-09-08T13:20:40.771Z,2.40
2018-09-08T13:22:16.531Z,4.00
2018-09-08T13:23:55.055Z,2.20
2018-09-08T13:25:30.274Z,2.40
2018-09-08T13:27:08.124Z,3.00
2018-09-08T13:28:43.364Z,3.00
2018-09-08T13:30:21.422Z,1.00
2018-09-08T13:32:16.266Z,2.20
2018-09-08T13:33:51.468Z,3.80
2018-09-08T13:35:26.564Z,2.40
2018-09-08T13:37:03.077Z,3.40
2018-09-08T13:38:38.259Z,3.20
2018-09-08T13:40:17.604Z,3.00
2018-09-08T13:41:52.670Z,3.00
2018-09-08T13:43:28.853Z,2.20
2018-09-08T13:45:07.659Z,3.00
2018-09-08T13:46:45.286Z,3.40
2018-09-08T13:48:21.718Z,2.80
2018-09-08T13:49:57.099Z,3.00
2018-09-08T13:51:34.314Z,2.60
2018-09-08T13:53:12.543Z,4.00
2018-09-08T13:54:49.582Z,4.00
2018-09-08T13:56:25.925Z,2.40
2018-09-08T13:58:02.240Z,3.00
2018-09-08T13:59:38.728Z,3.60
2018-09-08T14:01:16.065Z,1.80
2018-09-08T14:02:52.568Z,3.80
2018-09-08T14:04:27.630Z,2.80
2018-09-08T14:06:03.381Z,3.20
2018-09-08T14:08:00.401Z,3.40
2018-09-08T14:09:39.809Z,4.00
2018-09-08T14:11:25.575Z,4.00
2018-09-08T14:13:00.641Z,1.00
2018-09-08T14:14:37.620Z,3.60
2018-09-08T14:16:17.592Z,3.00
2018-09-08T14:18:02.533Z,4.40
2018-09-08T14:21:31.346Z,3.00
2018-09-08T14:23:12.346Z,4.00
2018-09-08T14:24:48.567Z,3.00
2018-09-08T14:26:24.852Z,2.60
2018-09-08T14:28:02.850Z,4.00
2018-09-08T14:29:39.812Z,3.60
2018-09-08T14:31:19.044Z,2.80
2018-09-08T14:32:54.497Z,3.20
2018-09-08T14:34:29.829Z,3.00
2018-09-08T14:36:07.278Z,3.00
2018-09-08T14:37:42.402Z,3.00
2018-09-08T14:39:18.322Z,4.00
2018-09-08T14:40:53.127Z,4.00
2018-09-08T14:42:33.042Z,5.40
2018-09-08T14:44:11.563Z,2.00
2018-09-08T14:45:58.790Z,2.40
2018-09-08T14:47:35.751Z,2.00
2018-09-08T14:49:23.850Z,4.40
2018-09-08T14:56:27.624Z,4.00
2018-09-08T14:58:08.728Z,2.00
2018-09-08T14:59:48.598Z,1.40
2018-09-08T15:01:27.308Z,2.40
2018-09-08T15:03:10.259Z,4.00
2018-09-08T15:04:54.929Z,3.40
2018-09-08T15:06:34.320Z,3.00
2018-09-08T20:35:33.882Z,6.00
2018-09-08T20:37:15.669Z,6.00
2018-09-08T20:39:01.332Z,6.40
2018-09-08T20:40:42.865Z,9.60
2018-09-08T20:42:37.542Z,33.80
2018-09-08T20:44:14.937Z,40.20
2018-09-08T20:47:42.347Z,6.00
2018-09-08T20:52:07.024Z,12.20
2018-09-08T20:53:45.921Z,10.40
2018-09-08T20:55:29.663Z,9.80
2018-09-08T20:57:12.272Z,12.20
2018-09-08T20:58:52.857Z,9.00
2018-09-08T21:00:32.115Z,6.80
2018-09-08T21:02:15.704Z,13.20
2018-09-08T21:03:55.449Z,14.20
2018-09-08T21:05:32.917Z,14.20
2018-09-08T21:07:09.559Z,13.80
2018-09-08T21:08:49.362Z,14.20
2018-09-08T21:10:31.058Z,19.40
2018-09-08T21:12:15.493Z,14.60
2018-09-08T21:13:52.487Z,13.80
2018-09-08T21:15:34.872Z,12.00
2018-09-08T21:17:17.735Z,8.60
2018-09-08T21:18:53.901Z,9.00
2018-09-08T21:20:35.637Z,7.80
2018-09-08T21:22:16.359Z,9.80
2018-09-08T21:23:55.189Z,9.00
2018-09-08T21:25:34.856Z,9.20
2018-09-08T21:27:13.629Z,9.80
2018-09-08T21:28:50.518Z,10.00
2018-09-08T21:30:26.850Z,14.20
2018-09-08T21:32:04.240Z,10.40
2018-09-08T21:33:40.687Z,9.60
2018-09-08T21:35:17.515Z,11.20
2018-09-08T21:36:56.622Z,4.80
2018-09-08T21:38:35.604Z,8.20
2018-09-08T21:40:18.790Z,4.00
2018-09-08T21:41:56.605Z,7.60
2018-09-08T21:43:37.330Z,7.00
2018-09-08T21:45:17.359Z,7.00
2018-09-08T21:46:53.916Z,7.80
2018-09-08T21:48:30.324Z,7.20
2018-09-08T21:50:10.781Z,5.40
2018-09-08T21:51:47.334Z,7.40
2018-09-08T21:55:14.887Z,6.60
2018-09-08T21:56:55.633Z,9.00
2018-09-08T21:58:35.884Z,7.40
2018-09-08T22:00:17.279Z,6.80
2018-09-08T22:01:56.988Z,7.00
2018-09-08T22:03:41.568Z,6.00
2018-09-08T22:05:22.295Z,7.00
2018-09-08T22:07:02.013Z,7.00
2018-09-08T22:08:42.822Z,7.00
2018-09-08T22:10:21.503Z,6.40
2018-09-08T22:11:58.722Z,7.80
2018-09-08T22:13:44.214Z,6.00
2018-09-08T22:15:26.076Z,6.00
2018-09-08T22:17:04.879Z,6.00
2018-09-08T22:18:41.917Z,6.00
2018-09-08T22:20:18.764Z,5.20
2018-09-08T22:23:46.344Z,6.20
2018-09-08T22:25:26.642Z,3.80
2018-09-08T22:27:14.244Z,6.00
2018-09-08T22:28:54.928Z,6.20
2018-09-08T22:30:38.697Z,6.00
2018-09-08T22:32:16.533Z,6.20
2018-09-08T22:33:57.604Z,6.20
2018-09-08T22:35:40.149Z,6.60
2018-09-08T22:37:20.694Z,6.00
2018-09-08T22:39:00.381Z,7.00
2018-09-08T22:40:37.941Z,6.20
2018-09-08T22:42:16.358Z,4.40
2018-09-08T22:43:59.968Z,6.20
2018-09-08T22:45:36.777Z,6.00
2018-09-08T22:47:17.544Z,9.00
2018-09-08T22:48:56.993Z,7.00
2018-09-08T22:50:36.040Z,10.00
2018-09-08T22:52:13.406Z,7.00
2018-09-08T22:53:48.759Z,8.20
2018-09-08T22:55:23.704Z,6.60
2018-09-08T22:56:59.613Z,11.20
2018-09-08T22:58:34.840Z,16.00
2018-09-08T23:00:13.697Z,14.60
2018-09-08T23:01:50.388Z,13.60
2018-09-08T23:03:27.760Z,6.80
2018-09-08T23:05:10.085Z,10.80
2018-09-08T23:06:45.508Z,11.20
2018-09-08T23:08:23.305Z,12.00
2018-09-08T23:10:00.475Z,12.00
2018-09-08T23:11:43.628Z,6.40
2018-09-08T23:13:31.568Z,14.80
2018-09-08T23:15:12.380Z,15.00
2018-09-08T23:16:54.027Z,15.00
2018-09-08T23:18:30.248Z,13.20
2018-09-08T23:20:06.670Z,18.20
2018-09-08T23:21:45.330Z,13.00
2018-09-08T23:23:27.978Z,12.20
2018-09-08T23:25:07.393Z,9.80
2018-09-08T23:26:44.493Z,12.20
2018-09-08T23:28:23.544Z,15.80
2018-09-08T23:30:03.482Z,10.20
2018-09-08T23:31:42.638Z,13.80
2018-09-08T23:33:21.281Z,13.40
2018-09-08T23:34:59.595Z,14.20
2018-09-08T23:36:42.777Z,13.00
2018-09-08T23:38:22.827Z,12.80
2018-09-08T23:45:03.230Z,8.20
2018-09-08T23:46:39.333Z,7.00
2018-09-08T23:48:15.675Z,8.60
2018-09-08T23:49:51.258Z,9.60
2018-09-08T23:51:26.298Z,8.20
2018-09-08T23:53:03.332Z,10.80
2018-09-08T23:54:39.594Z,10.00
2018-09-08T23:56:15.981Z,9.00
2018-09-08T23:57:52.328Z,8.60
2018-09-08T23:59:27.459Z,1.80
